Time;durP1;ratioP1;P1;durP2;ratioP2;P2;SDS_P1;SDS_P2;PMS_P1;PMS_P2;Temp;Humidity;BMP_temperature;BMP_pressure;BME280_temperature;BME280_humidity;BME280_pressure;Samples;Min_cycle;Max_cycle;Signal;HPM_P1;HPM_P2
2023/05/21 00:01:35;;;;;;;2.50;2.03;;;22.50;70.70;;;;;;5000104;28;20456;-46
2023/05/21 00:04:02;;;;;;;2.33;2.13;;;22.50;70.70;;;;;;4993129;28;20518;-45
2023/05/21 00:06:31;;;;;;;2.50;1.83;;;22.50;70.70;;;;;;4990634;28;20526;-45
2023/05/21 00:08:58;;;;;;;2.20;1.70;;;22.50;70.70;;;;;;5002418;28;20496;-45
2023/05/21 00:11:24;;;;;;;2.30;2.10;;;22.50;70.70;;;;;;5007369;28;20471;-45
2023/05/21 00:13:51;;;;;;;2.17;1.97;;;22.50;70.70;;;;;;4997310;28;20479;-44
2023/05/21 00:16:18;;;;;;;3.03;2.20;;;22.50;70.90;;;;;;4995845;28;20461;-44
2023/05/21 00:18:44;;;;;;;3.17;2.33;;;22.50;70.70;;;;;;4993821;28;20460;-44
2023/05/21 00:21:12;;;;;;;2.13;1.97;;;22.50;70.80;;;;;;5002682;28;20456;-45
2023/05/21 00:23:41;;;;;;;1.97;1.80;;;22.50;70.80;;;;;;5008353;28;20502;-45
2023/05/21 00:26:08;;;;;;;3.00;1.87;;;22.40;70.70;;;;;;5007260;28;20459;-44
2023/05/21 00:28:34;;;;;;;2.30;2.10;;;22.40;70.80;;;;;;5002098;28;20471;-46
2023/05/21 00:31:01;;;;;;;2.63;2.00;;;22.40;70.70;;;;;;5001446;28;20464;-46
2023/05/21 00:33:29;;;;;;;2.27;2.07;;;22.40;70.60;;;;;;5008387;28;20460;-44
2023/05/21 00:35:56;;;;;;;2.00;1.80;;;22.40;70.70;;;;;;5010762;28;20439;-44
2023/05/21 00:38:26;;;;;;;2.63;2.07;;;22.40;70.70;;;;;;5010538;28;20529;-45
2023/05/21 00:40:54;;;;;;;2.23;1.87;;;22.40;70.80;;;;;;5006894;28;20456;-44
2023/05/21 00:43:25;;;;;;;2.40;1.90;;;22.40;70.80;;;;;;5007196;28;20467;-44
2023/05/21 00:45:52;;;;;;;3.20;2.90;;;22.40;70.80;;;;;;4999712;28;20824;-45
2023/05/21 00:48:20;;;;;;;2.33;1.80;;;22.40;70.80;;;;;;5002341;28;20506;-44
2023/05/21 00:50:49;;;;;;;2.97;2.07;;;22.40;70.70;;;;;;5008612;28;21032;-44
2023/05/21 00:53:18;;;;;;;2.10;1.90;;;22.40;70.80;;;;;;5002124;28;20530;-44
2023/05/21 00:55:45;;;;;;;1.97;1.83;;;22.30;70.60;;;;;;5005555;28;20464;-46
2023/05/21 00:58:13;;;;;;;1.87;1.73;;;22.30;70.70;;;;;;5000795;28;20591;-45
2023/05/21 01:00:40;;;;;;;3.30;2.40;;;22.30;70.70;;;;;;5001676;28;20534;-44
2023/05/21 01:03:07;;;;;;;2.17;1.97;;;22.30;70.70;;;;;;4999335;28;20244;-47
2023/05/21 01:05:35;;;;;;;2.77;2.57;;;22.30;70.70;;;;;;5008249;28;20487;-45
2023/05/21 01:08:02;;;;;;;2.23;1.93;;;22.30;70.80;;;;;;5001643;28;20483;-45
2023/05/21 01:10:30;;;;;;;2.27;2.07;;;22.30;70.90;;;;;;4998412;28;21017;-46
2023/05/21 01:12:59;;;;;;;2.27;2.07;;;22.30;70.80;;;;;;4992651;28;20456;-46
2023/05/21 01:15:27;;;;;;;2.50;1.90;;;22.30;70.80;;;;;;4998752;28;20455;-44
2023/05/21 01:17:54;;;;;;;2.53;2.27;;;22.30;70.70;;;;;;5005075;28;20463;-44
2023/05/21 01:20:23;;;;;;;2.03;1.87;;;22.30;70.70;;;;;;5002519;28;21201;-45
2023/05/21 01:22:53;;;;;;;2.67;2.47;;;22.30;70.80;;;;;;5004549;28;20450;-44
2023/05/21 01:25:20;;;;;;;2.43;2.00;;;22.30;70.80;;;;;;5000222;28;20459;-46
2023/05/21 01:27:47;;;;;;;2.00;1.73;;;22.20;70.70;;;;;;5001924;28;21741;-45
2023/05/21 01:30:15;;;;;;;5.47;2.40;;;22.20;70.80;;;;;;5005572;28;20990;-44
2023/05/21 01:32:48;;;;;;;1.80;1.70;;;22.20;70.80;;;;;;4998912;28;20484;-43
2023/05/21 01:35:21;;;;;;;2.47;1.73;;;22.20;70.90;;;;;;4998361;28;20460;-44
2023/05/21 01:37:55;;;;;;;2.50;1.93;;;22.20;70.80;;;;;;5008919;28;20471;-45
2023/05/21 01:40:27;;;;;;;2.47;2.27;;;22.20;70.80;;;;;;4999803;28;22552;-45
2023/05/21 01:42:54;;;;;;;2.50;2.10;;;22.20;70.80;;;;;;5008264;28;20460;-46
2023/05/21 01:45:23;;;;;;;2.00;1.80;;;22.20;70.70;;;;;;4999467;28;20753;-44
2023/05/21 01:47:53;;;;;;;1.53;1.43;;;22.20;70.80;;;;;;5000482;28;20476;-45
2023/05/21 01:50:21;;;;;;;2.30;2.10;;;22.20;70.70;;;;;;5003504;28;20829;-44
2023/05/21 01:52:55;;;;;;;2.10;1.90;;;22.20;70.80;;;;;;5006467;28;20828;-45
2023/05/21 01:55:24;;;;;;;2.22;2.03;;;22.20;70.70;;;;;;5004747;28;20452;-44
2023/05/21 01:57:52;;;;;;;1.87;1.70;;;22.20;70.80;;;;;;5001229;28;20229;-44
2023/05/21 02:00:19;;;;;;;3.40;2.00;;;22.20;70.80;;;;;;5002404;28;20478;-44
2023/05/21 02:02:46;;;;;;;2.17;2.00;;;22.20;70.80;;;;;;4999012;28;20938;-44
2023/05/21 02:05:13;;;;;;;2.60;2.40;;;22.20;70.90;;;;;;4998404;28;20459;-44
2023/05/21 02:07:40;;;;;;;2.00;1.60;;;22.10;70.70;;;;;;5003653;28;20534;-45
2023/05/21 02:10:09;;;;;;;2.50;1.90;;;22.10;70.70;;;;;;5008344;28;20201;-44
2023/05/21 02:12:36;;;;;;;1.92;1.77;;;22.10;70.80;;;;;;5000890;28;20535;-44
2023/05/21 02:15:03;;;;;;;2.63;1.87;;;22.10;70.80;;;;;;4992161;28;20256;-44
2023/05/21 02:17:32;;;;;;;2.00;1.80;;;22.10;70.80;;;;;;4999489;28;20835;-44
2023/05/21 02:20:06;;;;;;;2.33;1.93;;;22.10;70.80;;;;;;4999674;28;20571;-44
2023/05/21 02:22:32;;;;;;;2.38;2.17;;;22.10;70.80;;;;;;4994960;28;20464;-45
2023/05/21 02:25:02;;;;;;;2.27;1.60;;;22.10;70.80;;;;;;4998974;28;20628;-46
2023/05/21 02:27:31;;;;;;;2.55;2.10;;;22.10;70.80;;;;;;5010577;28;21589;-44
2023/05/21 02:29:58;;;;;;;1.80;1.70;;;22.10;70.90;;;;;;5001279;28;20479;-44
2023/05/21 02:32:24;;;;;;;1.88;1.60;;;22.10;70.80;;;;;;4999979;28;20473;-44
2023/05/21 02:34:51;;;;;;;2.10;1.90;;;22.10;70.90;;;;;;5005569;28;20199;-43
2023/05/21 02:37:18;;;;;;;1.67;1.58;;;22.00;70.80;;;;;;5003296;28;20232;-45
2023/05/21 02:39:45;;;;;;;1.87;1.70;;;22.00;70.80;;;;;;5006891;28;20567;-45
2023/05/21 02:42:12;;;;;;;3.00;1.90;;;22.00;70.90;;;;;;5008623;28;20464;-46
2023/05/21 02:44:40;;;;;;;1.83;1.73;;;22.00;70.80;;;;;;5000940;28;20471;-44
2023/05/21 02:47:09;;;;;;;2.80;1.93;;;22.00;70.80;;;;;;5007236;28;20967;-45
2023/05/21 02:49:35;;;;;;;2.35;1.90;;;22.00;70.90;;;;;;5004541;28;20479;-45
2023/05/21 02:52:02;;;;;;;1.63;1.53;;;22.00;70.80;;;;;;5000593;28;20208;-47
2023/05/21 02:54:29;;;;;;;2.83;1.80;;;22.00;70.90;;;;;;5006649;28;20464;-44
2023/05/21 02:56:55;;;;;;;1.80;1.33;;;22.00;71.00;;;;;;5000137;28;20196;-44
2023/05/21 02:59:22;;;;;;;1.87;1.67;;;22.00;70.90;;;;;;5002563;28;20467;-45
2023/05/21 03:01:50;;;;;;;2.50;2.00;;;22.00;70.80;;;;;;5004950;28;20460;-45
2023/05/21 03:04:17;;;;;;;2.00;1.80;;;22.00;70.90;;;;;;5003271;28;20197;-44
2023/05/21 03:06:45;;;;;;;2.17;1.98;;;22.00;70.90;;;;;;5002556;28;20751;-49
2023/05/21 03:09:12;;;;;;;1.85;1.70;;;22.00;71.70;;;;;;5004931;28;20221;-47
2023/05/21 03:11:38;;;;;;;2.47;2.03;;;22.00;70.90;;;;;;5009925;28;20297;-44
2023/05/21 03:14:06;;;;;;;1.70;1.60;;;21.90;70.80;;;;;;4998434;28;20203;-44
2023/05/21 03:16:33;;;;;;;2.20;2.00;;;21.90;70.90;;;;;;4997128;28;20200;-45
2023/05/21 03:19:01;;;;;;;1.80;1.65;;;21.90;70.70;;;;;;4998109;28;20256;-44
2023/05/21 03:21:29;;;;;;;2.00;1.77;;;21.90;70.90;;;;;;5001451;28;20193;-45
2023/05/21 03:23:57;;;;;;;2.05;1.90;;;21.90;70.90;;;;;;5004346;28;20236;-45
2023/05/21 03:26:26;;;;;;;2.15;2.00;;;21.90;70.90;;;;;;5008856;28;20612;-46
2023/05/21 03:28:52;;;;;;;2.20;1.77;;;21.90;70.90;;;;;;5009353;28;20217;-43
2023/05/21 03:31:19;;;;;;;1.92;1.50;;;21.90;70.90;;;;;;5002869;28;20197;-44
2023/05/21 03:33:46;;;;;;;2.45;2.25;;;21.90;70.90;;;;;;5004368;28;20198;-44
2023/05/21 03:36:14;;;;;;;1.90;1.70;;;21.90;71.00;;;;;;5004356;28;20691;-45
2023/05/21 03:38:40;;;;;;;1.83;1.67;;;21.90;71.00;;;;;;5005342;28;20193;-44
2023/05/21 03:41:08;;;;;;;2.43;2.23;;;21.90;71.00;;;;;;5005559;28;20203;-44
2023/05/21 03:43:35;;;;;;;1.85;1.75;;;21.90;71.00;;;;;;5007703;28;20475;-45
2023/05/21 03:46:02;;;;;;;1.80;1.60;;;21.90;71.00;;;;;;5002520;28;20217;-44
2023/05/21 03:48:28;;;;;;;1.40;1.27;;;21.90;71.00;;;;;;5003933;28;20224;-44
2023/05/21 03:50:55;;;;;;;1.60;1.50;;;21.80;70.90;;;;;;5007075;28;20200;-44
2023/05/21 03:53:23;;;;;;;2.35;2.15;;;21.80;71.00;;;;;;5001506;28;20223;-44
2023/05/21 03:55:53;;;;;;;2.17;1.88;;;21.80;70.90;;;;;;4996997;28;20197;-44
2023/05/21 03:58:20;;;;;;;2.08;1.70;;;21.80;70.60;;;;;;5008359;28;20212;-45
2023/05/21 04:00:47;;;;;;;1.90;1.67;;;21.80;70.90;;;;;;4993274;28;20205;-45
2023/05/21 04:03:14;;;;;;;2.60;1.92;;;21.80;70.70;;;;;;4998983;28;20603;-44
2023/05/21 04:05:42;;;;;;;2.65;1.83;;;21.90;71.10;;;;;;5000926;28;20331;-44
2023/05/21 04:08:09;;;;;;;2.30;2.10;;;21.80;70.80;;;;;;5000538;28;20786;-44
2023/05/21 04:10:37;;;;;;;2.35;1.45;;;21.80;70.70;;;;;;5001145;28;20474;-44
2023/05/21 04:13:03;;;;;;;2.60;2.00;;;21.80;70.90;;;;;;5001606;28;20679;-44
2023/05/21 04:15:31;;;;;;;1.90;1.80;;;21.80;70.80;;;;;;4999431;28;20568;-45
2023/05/21 04:17:59;;;;;;;2.05;1.85;;;21.80;70.70;;;;;;4998453;28;20656;-44
2023/05/21 04:20:25;;;;;;;1.90;1.60;;;21.80;71.00;;;;;;4996349;28;20197;-45
2023/05/21 04:22:52;;;;;;;1.85;1.40;;;21.80;70.90;;;;;;5000819;28;20197;-44
2023/05/21 04:25:20;;;;;;;1.75;1.65;;;21.80;70.80;;;;;;5000455;28;20673;-45
2023/05/21 04:27:49;;;;;;;1.65;1.50;;;21.80;70.80;;;;;;5003147;28;20226;-45
2023/05/21 04:30:15;;;;;;;3.13;1.50;;;21.80;71.10;;;;;;5004311;28;20200;-46
2023/05/21 04:32:44;;;;;;;2.10;1.90;;;21.80;71.00;;;;;;4997750;28;20202;-45
2023/05/21 04:35:14;;;;;;;2.20;2.00;;;21.70;70.80;;;;;;5003174;28;20201;-46
2023/05/21 04:37:41;;;;;;;1.58;1.42;;;21.70;70.90;;;;;;5001024;28;20189;-44
2023/05/21 04:40:09;;;;;;;2.00;1.80;;;21.70;70.80;;;;;;5004471;28;20225;-45
2023/05/21 04:42:35;;;;;;;1.77;1.60;;;21.70;70.80;;;;;;5005075;28;20200;-44
2023/05/21 04:45:04;;;;;;;2.15;1.95;;;21.70;70.80;;;;;;5004814;28;20201;-44
2023/05/21 04:47:34;;;;;;;2.00;1.80;;;21.70;71.00;;;;;;5001966;28;20212;-44
2023/05/21 04:50:00;;;;;;;1.65;1.55;;;21.70;71.00;;;;;;5007319;28;20596;-44
2023/05/21 04:52:27;;;;;;;2.08;1.88;;;21.70;70.80;;;;;;4998277;28;20196;-44
2023/05/21 04:54:54;;;;;;;2.10;1.75;;;21.70;70.90;;;;;;5004805;28;20205;-44
2023/05/21 04:57:22;;;;;;;1.70;1.60;;;21.70;70.80;;;;;;5005742;28;20212;-44
2023/05/21 04:59:50;;;;;;;2.55;2.08;;;21.70;70.90;;;;;;4991867;28;20632;-44
2023/05/21 05:02:18;;;;;;;2.00;1.70;;;21.70;70.90;;;;;;5002767;28;20681;-44
2023/05/21 05:04:45;;;;;;;1.48;1.38;;;21.70;70.80;;;;;;5008121;28;20201;-45
2023/05/21 05:07:12;;;;;;;1.80;1.70;;;21.70;70.90;;;;;;5004503;28;20201;-45
2023/05/21 05:09:39;;;;;;;2.15;1.95;;;21.70;71.00;;;;;;5005774;28;20228;-44
2023/05/21 05:12:06;;;;;;;1.60;1.50;;;21.70;70.90;;;;;;4997349;28;20197;-44
2023/05/21 05:14:33;;;;;;;1.70;1.60;;;21.60;70.80;;;;;;5002721;28;20451;-46
2023/05/21 05:17:00;;;;;;;2.53;1.95;;;21.60;70.90;;;;;;5000795;28;20205;-47
2023/05/21 05:19:28;;;;;;;2.10;1.90;;;21.70;70.90;;;;;;5001876;28;20255;-43
2023/05/21 05:21:55;;;;;;;1.50;1.40;;;21.60;70.90;;;;;;4996460;28;20209;-44
2023/05/21 05:24:21;;;;;;;1.63;1.50;;;21.70;71.10;;;;;;5006076;28;20413;-44
2023/05/21 05:26:48;;;;;;;1.50;1.40;;;21.60;70.90;;;;;;5003224;28;20193;-45
2023/05/21 05:29:15;;;;;;;1.90;1.70;;;21.70;71.20;;;;;;5002583;28;20216;-46
2023/05/21 05:31:41;;;;;;;1.60;1.42;;;21.70;71.20;;;;;;5001665;28;20704;-44
2023/05/21 05:34:08;;;;;;;1.73;1.63;;;21.70;71.30;;;;;;5007004;28;20223;-45
2023/05/21 05:36:36;;;;;;;1.73;1.60;;;21.70;71.20;;;;;;5000223;28;20200;-45
2023/05/21 05:39:03;;;;;;;1.97;1.50;;;21.70;71.20;;;;;;5001768;28;20209;-44
2023/05/21 05:41:30;;;;;;;1.73;1.60;;;21.70;71.30;;;;;;5004742;28;20995;-45
2023/05/21 05:43:56;;;;;;;2.28;2.08;;;21.70;71.40;;;;;;5006610;28;20835;-45
2023/05/21 05:46:24;;;;;;;1.60;1.50;;;21.70;71.20;;;;;;4997350;28;20201;-46
2023/05/21 05:48:50;;;;;;;2.23;1.80;;;21.80;71.30;;;;;;4998651;28;20856;-44
2023/05/21 05:51:17;;;;;;;3.03;1.50;;;21.80;71.40;;;;;;5003740;28;20460;-44
2023/05/21 05:53:45;;;;;;;1.20;1.00;;;21.80;71.40;;;;;;5006252;28;20192;-44
2023/05/21 05:56:12;;;;;;;1.43;1.33;;;21.80;71.40;;;;;;5003648;28;20571;-44
2023/05/21 05:58:38;;;;;;;2.17;1.97;;;21.80;71.50;;;;;;5000332;28;20454;-45
2023/05/21 06:01:05;;;;;;;1.40;1.20;;;21.80;71.50;;;;;;5002619;28;21018;-47
2023/05/21 06:03:32;;;;;;;1.85;1.75;;;21.80;71.50;;;;;;5005972;28;20455;-43
2023/05/21 06:05:58;;;;;;;1.87;1.50;;;21.80;71.50;;;;;;5007162;28;20212;-44
2023/05/21 06:08:25;;;;;;;3.10;1.50;;;21.90;71.60;;;;;;5002057;28;20467;-45
2023/05/21 06:10:53;;;;;;;1.93;1.60;;;21.90;71.70;;;;;;5009055;28;20463;-44
2023/05/21 06:13:20;;;;;;;1.80;1.50;;;21.90;71.60;;;;;;5007387;28;20465;-43
2023/05/21 06:15:46;;;;;;;1.70;1.53;;;21.90;71.70;;;;;;5005003;28;20193;-44
2023/05/21 06:18:13;;;;;;;2.20;1.77;;;21.90;71.50;;;;;;5003785;28;20464;-44
2023/05/21 06:20:40;;;;;;;1.70;1.40;;;22.00;71.80;;;;;;5005579;28;21184;-44
2023/05/21 06:23:07;;;;;;;1.60;1.50;;;22.00;71.70;;;;;;5009372;28;20470;-44
2023/05/21 06:25:34;;;;;;;1.30;1.20;;;22.00;71.50;;;;;;5006205;28;20470;-44
2023/05/21 06:28:02;;;;;;;1.90;1.60;;;22.00;71.60;;;;;;5006502;28;20475;-44
2023/05/21 06:30:29;;;;;;;1.83;1.50;;;22.00;71.50;;;;;;5006363;28;20503;-46
2023/05/21 06:32:56;;;;;;;1.70;1.60;;;22.00;72.40;;;;;;5003713;28;20448;-44
2023/05/21 06:35:23;;;;;;;1.37;1.27;;;22.10;71.70;;;;;;5005869;28;20451;-44
2023/05/21 06:37:49;;;;;;;1.57;1.40;;;22.10;71.60;;;;;;5005381;28;20951;-45
2023/05/21 06:40:16;;;;;;;1.80;1.57;;;22.10;71.60;;;;;;5005093;28;20829;-44
2023/05/21 06:42:43;;;;;;;1.50;1.27;;;22.10;71.50;;;;;;5005899;28;20447;-44
2023/05/21 06:45:12;;;;;;;1.83;1.73;;;22.10;71.60;;;;;;5006416;28;20455;-44
2023/05/21 06:47:38;;;;;;;1.43;1.33;;;22.10;71.50;;;;;;5004541;28;20464;-44
2023/05/21 06:50:06;;;;;;;1.43;1.30;;;22.10;71.50;;;;;;5005308;28;20491;-44
2023/05/21 06:52:32;;;;;;;1.30;1.10;;;22.10;71.50;;;;;;5003761;28;20472;-44
2023/05/21 06:54:59;;;;;;;1.50;1.40;;;22.10;71.40;;;;;;5005821;28;20463;-44
2023/05/21 06:57:25;;;;;;;1.60;1.37;;;22.10;71.40;;;;;;5001831;28;20456;-47
2023/05/21 06:59:52;;;;;;;4.43;1.20;;;22.10;71.70;;;;;;5000857;28;20464;-49
2023/05/21 07:02:20;;;;;;;1.83;1.57;;;22.10;71.60;;;;;;5001315;28;20463;-55
2023/05/21 07:04:47;;;;;;;1.83;1.63;;;22.10;71.60;;;;;;5006881;28;20464;-55
2023/05/21 07:07:13;;;;;;;2.23;1.60;;;22.20;71.80;;;;;;5007358;28;20816;-52
2023/05/21 07:09:40;;;;;;;1.70;1.30;;;22.20;72.00;;;;;;4996478;28;20487;-56
2023/05/21 07:12:07;;;;;;;2.80;1.80;;;22.20;72.00;;;;;;5004070;28;20464;-53
2023/05/21 07:14:34;;;;;;;1.40;1.30;;;22.20;72.00;;;;;;5000789;28;20471;-54
2023/05/21 07:17:00;;;;;;;3.80;1.33;;;22.20;72.10;;;;;;4995658;28;20465;-53
2023/05/21 07:19:28;;;;;;;2.17;1.97;;;22.20;72.20;;;;;;5003889;28;20482;-51
2023/05/21 07:21:56;;;;;;;2.03;1.83;;;22.20;72.30;;;;;;5004743;28;20461;-51
2023/05/21 07:24:23;;;;;;;1.77;1.40;;;22.30;72.50;;;;;;5004863;28;20955;-50
2023/05/21 07:26:49;;;;;;;1.47;1.37;;;22.30;72.50;;;;;;5003354;28;20460;-49
2023/05/21 07:29:16;;;;;;;1.90;1.20;;;22.30;72.50;;;;;;5007000;28;20533;-52
2023/05/21 07:31:43;;;;;;;1.23;1.13;;;22.30;72.50;;;;;;5003558;28;21852;-45
2023/05/21 07:34:09;;;;;;;2.30;1.30;;;22.40;72.70;;;;;;5009648;28;20471;-46
2023/05/21 07:36:37;;;;;;;1.70;1.60;;;22.40;72.80;;;;;;4998629;28;20458;-48
2023/05/21 07:39:04;;;;;;;1.47;1.37;;;22.40;72.70;;;;;;5007198;28;20460;-48
2023/05/21 07:41:31;;;;;;;1.50;1.30;;;22.50;72.70;;;;;;5007472;28;20494;-51
2023/05/21 07:44:00;;;;;;;1.30;1.10;;;22.50;72.80;;;;;;5002524;28;20460;-48
2023/05/21 07:46:27;;;;;;;1.37;1.27;;;22.50;72.80;;;;;;4997326;28;20463;-45
2023/05/21 07:48:53;;;;;;;4.60;1.67;;;22.60;72.90;;;;;;5007978;28;20475;-45
2023/05/21 07:51:20;;;;;;;1.43;1.27;;;22.60;72.80;;;;;;4995496;28;20463;-52
2023/05/21 07:53:48;;;;;;;1.47;1.20;;;22.60;72.80;;;;;;5002491;28;20981;-53
2023/05/21 07:56:15;;;;;;;1.53;1.43;;;22.70;73.00;;;;;;5005587;28;20486;-56
2023/05/21 07:58:44;;;;;;;1.70;1.60;;;22.70;72.90;;;;;;5008755;28;20460;-56
2023/05/21 08:01:11;;;;;;;2.57;1.93;;;22.80;72.70;;;;;;5001061;28;20491;-52
2023/05/21 08:03:38;;;;;;;2.20;2.00;;;22.80;73.10;;;;;;4995948;28;20471;-51
2023/05/21 08:06:05;;;;;;;1.83;1.50;;;22.80;73.20;;;;;;4994013;28;20471;-52
2023/05/21 08:08:32;;;;;;;2.90;1.60;;;22.80;72.90;;;;;;4989491;28;20955;-49
2023/05/21 08:11:00;;;;;;;1.73;1.63;;;22.80;72.80;;;;;;4989268;28;20513;-46
2023/05/21 08:13:27;;;;;;;1.50;1.40;;;22.90;72.90;;;;;;4993976;28;20468;-49
2023/05/21 08:15:54;;;;;;;2.40;2.10;;;22.90;72.60;;;;;;4992348;28;20470;-43
2023/05/21 08:18:22;;;;;;;2.80;2.03;;;22.90;72.40;;;;;;4986635;28;20463;-46
2023/05/21 08:20:49;;;;;;;1.70;1.60;;;22.90;72.20;;;;;;4992213;28;20672;-43
2023/05/21 08:23:15;;;;;;;4.20;1.80;;;22.90;72.00;;;;;;4995666;28;20480;-43
2023/05/21 08:25:45;;;;;;;3.17;2.97;;;22.90;71.90;;;;;;4992494;28;20468;-44
2023/05/21 08:28:13;;;;;;;3.67;3.00;;;22.90;72.20;;;;;;4988185;28;20461;-44
2023/05/21 08:30:40;;;;;;;4.07;3.57;;;22.90;72.70;;;;;;5000071;28;20486;-44
2023/05/21 08:33:07;;;;;;;4.13;3.70;;;22.90;72.90;;;;;;5004491;28;20459;-44
2023/05/21 08:35:33;;;;;;;2.77;2.57;;;22.90;72.60;;;;;;5004798;28;20451;-43
2023/05/21 08:38:00;;;;;;;2.50;2.30;;;23.00;72.90;;;;;;4998682;28;20468;-42
2023/05/21 08:40:27;;;;;;;5.83;2.93;;;23.00;72.80;;;;;;5006461;28;20475;-44
2023/05/21 08:42:53;;;;;;;3.10;2.40;;;23.00;72.50;;;;;;4999574;28;20464;-47
2023/05/21 08:45:23;;;;;;;3.20;2.60;;;23.00;72.40;;;;;;4998299;28;20497;-45
2023/05/21 08:47:56;;;;;;;6.57;2.47;;;23.00;72.10;;;;;;5000078;28;20455;-45
2023/05/21 08:50:26;;;;;;;3.03;2.73;;;23.00;71.90;;;;;;5001375;28;20573;-44
2023/05/21 08:52:54;;;;;;;2.87;2.67;;;23.00;71.90;;;;;;5001497;28;20475;-46
2023/05/21 08:55:21;;;;;;;3.03;2.73;;;23.00;71.80;;;;;;5003770;28;20494;-44
2023/05/21 08:57:49;;;;;;;3.00;2.70;;;23.00;71.70;;;;;;5002869;28;20463;-46
2023/05/21 09:00:16;;;;;;;2.50;2.30;;;23.00;71.60;;;;;;4998959;28;20949;-45
2023/05/21 09:02:45;;;;;;;3.50;2.57;;;23.00;71.60;;;;;;4999038;28;20955;-44
2023/05/21 09:05:13;;;;;;;2.33;2.13;;;23.00;71.60;;;;;;5005568;28;20470;-44
2023/05/21 09:07:46;;;;;;;2.67;2.47;;;23.00;71.50;;;;;;5005072;28;20460;-44
2023/05/21 09:10:14;;;;;;;3.30;2.60;;;23.00;71.50;;;;;;4998655;28;20498;-44
2023/05/21 09:12:41;;;;;;;2.50;2.30;;;23.00;71.50;;;;;;5007916;28;20463;-45
2023/05/21 09:15:09;;;;;;;2.27;2.17;;;23.00;71.40;;;;;;4993356;28;20486;-44
2023/05/21 09:17:35;;;;;;;8.13;2.50;;;23.00;71.30;;;;;;5004491;28;20456;-45
2023/05/21 09:20:10;;;;;;;2.80;2.33;;;23.00;71.30;;;;;;4997271;28;20502;-47
2023/05/21 09:22:39;;;;;;;2.90;1.93;;;23.00;71.30;;;;;;4990856;28;20468;-45
2023/05/21 09:25:07;;;;;;;2.13;2.00;;;23.00;71.20;;;;;;4996909;28;20919;-44
2023/05/21 09:27:34;;;;;;;2.60;2.40;;;23.00;71.20;;;;;;5003243;28;20579;-45
2023/05/21 09:30:02;;;;;;;2.60;2.17;;;23.00;71.20;;;;;;4996403;28;20479;-45
2023/05/21 09:32:29;;;;;;;2.10;1.73;;;23.10;71.30;;;;;;4996059;28;20972;-45
2023/05/21 09:34:56;;;;;;;2.67;2.13;;;23.00;71.20;;;;;;4997200;28;20468;-44
2023/05/21 09:37:24;;;;;;;2.10;1.60;;;23.00;71.20;;;;;;4999008;28;20982;-44
2023/05/21 09:39:51;;;;;;;3.20;2.27;;;23.10;71.30;;;;;;4994662;28;20455;-46
2023/05/21 09:42:21;;;;;;;2.50;2.30;;;23.10;71.20;;;;;;4997628;28;20475;-45
2023/05/21 09:44:48;;;;;;;1.83;1.73;;;23.10;71.30;;;;;;4997866;28;21029;-44
2023/05/21 09:47:20;;;;;;;6.10;2.23;;;23.00;71.20;;;;;;4997156;28;20499;-44
2023/05/21 09:49:46;;;;;;;4.97;1.80;;;23.00;71.40;;;;;;4994944;28;20902;-45
2023/05/21 09:52:13;;;;;;;6.20;2.67;;;23.00;71.30;;;;;;4995390;28;20476;-46
2023/05/21 09:54:41;;;;;;;3.97;3.00;;;23.00;71.50;;;;;;4996435;28;20472;-44
2023/05/21 09:57:08;;;;;;;2.60;2.40;;;23.00;71.40;;;;;;4994140;28;20470;-48
2023/05/21 09:59:38;;;;;;;2.37;2.17;;;23.00;71.40;;;;;;4993697;28;20468;-44
2023/05/21 10:02:16;;;;;;;4.37;3.93;;;23.00;71.50;;;;;;5002274;28;20456;-44
2023/05/21 10:04:44;;;;;;;5.70;5.20;;;23.00;71.30;;;;;;5004725;28;20989;-44
2023/05/21 10:07:11;;;;;;;6.30;5.60;;;22.90;71.30;;;;;;5002147;28;20460;-44
2023/05/21 10:09:38;;;;;;;6.13;5.63;;;22.90;71.90;;;;;;4999237;28;20984;-44
2023/05/21 10:12:09;;;;;;;9.30;6.20;;;22.90;72.10;;;;;;5003535;28;20463;-44
2023/05/21 10:14:36;;;;;;;7.03;5.77;;;22.90;72.30;;;;;;5004489;28;20463;-44
2023/05/21 10:17:06;;;;;;;7.63;5.10;;;22.90;72.30;;;;;;4997449;28;20456;-47
2023/05/21 10:19:35;;;;;;;6.13;5.53;;;22.90;72.80;;;;;;5001230;28;20483;-43
2023/05/21 10:22:03;;;;;;;5.83;4.67;;;22.90;72.90;;;;;;5000730;28;20475;-44
2023/05/21 10:24:30;;;;;;;9.13;4.63;;;22.90;73.10;;;;;;4993755;28;20476;-44
2023/05/21 10:26:57;;;;;;;5.77;5.03;;;22.90;73.20;;;;;;4995753;28;20474;-43
2023/05/21 10:29:26;;;;;;;5.43;4.90;;;22.90;73.50;;;;;;4998255;28;20818;-47
2023/05/21 10:31:53;;;;;;;4.30;3.90;;;22.90;73.70;;;;;;4993643;28;20494;-50
2023/05/21 10:34:21;;;;;;;5.90;5.40;;;22.90;73.60;;;;;;4996749;28;20465;-50
2023/05/21 10:36:50;;;;;;;5.40;4.90;;;23.00;73.80;;;;;;4997827;28;20472;-53
2023/05/21 10:39:18;;;;;;;5.20;4.63;;;23.00;73.90;;;;;;4999043;28;20463;-54
2023/05/21 10:41:51;;;;;;;7.60;5.23;;;23.00;74.00;;;;;;4986803;28;20459;-52
2023/05/21 10:44:27;;;;;;;4.80;4.40;;;23.00;74.10;;;;;;4989534;28;21043;-46
2023/05/21 10:47:14;;;;;;;5.43;4.60;;;23.10;74.20;;;;;;4997535;28;20475;-47
2023/05/21 10:50:20;;;;;;;4.90;4.40;;;23.10;74.30;;;;;;5000068;28;20456;-46
2023/05/21 10:53:01;;;;;;;8.23;4.60;;;23.10;74.50;;;;;;4930153;28;20470;-46
2023/05/21 10:55:42;;;;;;;4.20;3.80;;;23.10;74.30;;;;;;4995936;28;20455;-47
2023/05/21 10:58:34;;;;;;;4.40;4.00;;;23.20;74.50;;;;;;4997927;28;20575;-46
2023/05/21 11:01:02;;;;;;;4.00;3.60;;;23.20;74.60;;;;;;4993034;28;20474;-51
2023/05/21 11:03:32;;;;;;;4.63;4.20;;;23.20;74.20;;;;;;4998353;28;20475;-56
2023/05/21 11:06:04;;;;;;;4.43;3.97;;;23.20;74.30;;;;;;4995464;28;20835;-49
2023/05/21 11:08:34;;;;;;;5.07;4.67;;;23.30;74.40;;;;;;5002667;28;21194;-50
2023/05/21 11:11:01;;;;;;;3.97;3.67;;;23.30;74.80;;;;;;4992840;28;20492;-45
2023/05/21 11:13:31;;;;;;;3.63;3.27;;;23.30;74.50;;;;;;5005084;28;20813;-46
2023/05/21 11:16:07;;;;;;;6.60;4.10;;;23.30;74.60;;;;;;5002282;28;20490;-50
2023/05/21 11:19:03;;;;;;;4.40;4.00;;;23.40;74.50;;;;;;5000982;28;20521;-53
2023/05/21 11:21:33;;;;;;;4.10;3.80;;;23.40;74.50;;;;;;5004028;28;22903;-50
2023/05/21 11:24:02;;;;;;;3.63;3.33;;;23.40;74.40;;;;;;5001577;28;20483;-49
2023/05/21 11:26:50;;;;;;;4.70;4.30;;;23.40;74.40;;;;;;5006821;28;20459;-45
2023/05/21 11:29:18;;;;;;;3.73;3.40;;;23.40;74.30;;;;;;5003221;28;20474;-46
2023/05/21 11:31:46;;;;;;;4.73;4.30;;;23.50;74.50;;;;;;5002860;28;20549;-45
2023/05/21 11:34:15;;;;;;;4.40;4.10;;;23.50;74.50;;;;;;5007594;28;20919;-50
2023/05/21 11:36:43;;;;;;;3.87;3.57;;;23.50;74.40;;;;;;4999533;28;20452;-45
2023/05/21 11:39:11;;;;;;;4.30;3.77;;;23.50;74.60;;;;;;5002763;28;20459;-46
2023/05/21 11:41:51;;;;;;;4.70;4.30;;;23.50;74.40;;;;;;5002508;28;20470;-48
2023/05/21 11:44:18;;;;;;;4.27;3.87;;;23.60;74.50;;;;;;5001451;28;20479;-48
2023/05/21 11:46:46;;;;;;;4.50;4.10;;;23.60;74.50;;;;;;5002777;28;20478;-45
2023/05/21 11:49:15;;;;;;;4.63;4.23;;;23.60;74.40;;;;;;5004411;28;20475;-43
2023/05/21 11:51:43;;;;;;;5.40;4.53;;;23.60;74.40;;;;;;5004333;28;20515;-42
2023/05/21 11:54:10;;;;;;;4.23;3.93;;;23.60;74.40;;;;;;5004175;28;20467;-48
2023/05/21 11:56:40;;;;;;;4.03;3.67;;;23.70;74.60;;;;;;5001719;28;20460;-46
2023/05/21 11:59:13;;;;;;;3.90;3.60;;;23.70;74.50;;;;;;5004302;28;20463;-44
2023/05/21 12:01:42;;;;;;;4.20;3.90;;;23.70;74.50;;;;;;5007596;28;20471;-45
2023/05/21 12:04:10;;;;;;;4.83;3.80;;;23.70;74.50;;;;;;5001490;28;20459;-47
2023/05/21 12:06:41;;;;;;;3.93;3.63;;;23.70;74.60;;;;;;5006460;28;20464;-44
2023/05/21 12:09:08;;;;;;;4.13;3.80;;;23.80;74.70;;;;;;5005402;28;20459;-46
2023/05/21 12:11:36;;;;;;;4.07;3.77;;;23.80;74.60;;;;;;5003105;28;20483;-50
2023/05/21 12:14:02;;;;;;;5.50;4.07;;;23.80;74.70;;;;;;5004186;28;20466;-49
2023/05/21 12:16:29;;;;;;;4.27;3.87;;;23.80;74.60;;;;;;5001958;28;20471;-46
2023/05/21 12:18:56;;;;;;;4.50;4.10;;;23.80;74.60;;;;;;4995373;28;20970;-48
2023/05/21 12:21:23;;;;;;;7.07;3.83;;;23.80;74.60;;;;;;4999228;28;20488;-46
2023/05/21 12:23:51;;;;;;;5.00;4.60;;;23.80;74.60;;;;;;5002173;28;20514;-48
2023/05/21 12:26:18;;;;;;;4.90;4.17;;;23.80;74.50;;;;;;5006052;28;20467;-45
2023/05/21 12:28:45;;;;;;;3.70;3.30;;;23.90;74.60;;;;;;5008416;28;20824;-44
2023/05/21 12:31:15;;;;;;;5.10;4.60;;;23.90;74.50;;;;;;4997714;28;20491;-44
2023/05/21 12:33:44;;;;;;;5.70;5.20;;;23.90;75.00;;;;;;5006562;28;20478;-46
2023/05/21 12:36:11;;;;;;;8.00;6.03;;;23.90;75.60;;;;;;4997386;28;20453;-45
2023/05/21 12:38:37;;;;;;;6.80;6.20;;;23.80;75.70;;;;;;5001612;28;20456;-45
2023/05/21 12:41:06;;;;;;;12.20;6.17;;;23.80;76.20;;;;;;5004180;28;20559;-44
2023/05/21 12:43:33;;;;;;;6.50;5.90;;;23.80;76.30;;;;;;5002763;28;20466;-43
2023/05/21 12:46:00;;;;;;;6.90;5.90;;;23.80;76.20;;;;;;5003758;28;20456;-47
2023/05/21 12:48:27;;;;;;;6.30;5.60;;;23.90;76.50;;;;;;5004541;28;20483;-46
2023/05/21 12:50:53;;;;;;;6.20;5.70;;;23.80;75.90;;;;;;5003364;28;20490;-47
2023/05/21 12:53:20;;;;;;;6.00;5.50;;;23.90;76.50;;;;;;4997548;28;20975;-48